Time;durP1;ratioP1;P1;durP2;ratioP2;P2;SDS_P1;SDS_P2;PMS_P1;PMS_P2;Temp;Humidity;BMP_temperature;BMP_pressure;BME280_temperature;BME280_humidity;BME280_pressure;Samples;Min_cycle;Max_cycle;Signal;HPM_P1;HPM_P2
2021/11/06 00:01:34;;;;;;;;;;;18.10;60.20;;;;;;5029504;28;20345;-63
2021/11/06 00:04:00;;;;;;;;;;;18.10;60.20;;;;;;5043573;28;19913;-63
2021/11/06 00:06:25;;;;;;;;;;;18.10;60.20;;;;;;5036292;28;19924;-62
2021/11/06 00:08:51;;;;;;;;;;;18.10;60.20;;;;;;5019632;28;19917;-59
2021/11/06 00:11:16;;;;;;;;;;;18.10;60.20;;;;;;5028073;28;19913;-62
2021/11/06 00:13:42;;;;;;;;;;;18.10;60.20;;;;;;5029888;28;19935;-64
2021/11/06 00:16:07;;;;;;;;;;;18.10;60.20;;;;;;5023621;28;19945;-63
2021/11/06 00:18:33;;;;;;;;;;;18.10;60.20;;;;;;5037247;28;20328;-63
2021/11/06 00:20:58;;;;;;;;;;;18.20;60.20;;;;;;5024809;28;19913;-65
2021/11/06 00:23:23;;;;;;;;;;;18.10;60.20;;;;;;5036880;28;20244;-65
2021/11/06 00:25:49;;;;;;;;;;;18.20;60.20;;;;;;5036919;28;19929;-66
2021/11/06 00:28:14;;;;;;;;;;;18.10;60.20;;;;;;5044358;28;20286;-65
2021/11/06 00:30:40;;;;;;;;;;;18.20;60.10;;;;;;5040395;28;19916;-66
2021/11/06 00:33:05;;;;;;;;;;;18.20;60.10;;;;;;5039297;28;19916;-66
2021/11/06 00:35:31;;;;;;;;;;;18.20;60.10;;;;;;5031834;28;20372;-66
2021/11/06 00:37:56;;;;;;;;;;;18.20;60.10;;;;;;5033088;28;19913;-65
2021/11/06 00:40:22;;;;;;;;;;;18.20;60.10;;;;;;5030742;28;19967;-62
2021/11/06 00:42:47;;;;;;;;;;;18.20;60.10;;;;;;5032680;28;19920;-64
2021/11/06 00:45:13;;;;;;;;;;;18.20;60.10;;;;;;5023095;28;20280;-64
2021/11/06 00:47:38;;;;;;;;;;;18.20;60.00;;;;;;5035365;28;19997;-65
2021/11/06 00:50:04;;;;;;;;;;;18.20;60.00;;;;;;5025150;28;19916;-65
2021/11/06 00:52:29;;;;;;;;;;;18.20;60.00;;;;;;5043245;28;19913;-64
2021/11/06 00:54:55;;;;;;;;;;;18.20;59.90;;;;;;5038705;28;20199;-65
2021/11/06 00:57:21;;;;;;;;;;;18.20;60.00;;;;;;5031754;28;20358;-64
2021/11/06 00:59:46;;;;;;;;;;;18.20;59.90;;;;;;5032021;28;19916;-64
2021/11/06 01:02:12;;;;;;;;;;;18.20;60.00;;;;;;5026969;28;19919;-65
2021/11/06 01:04:37;;;;;;;;;;;18.20;60.00;;;;;;5034061;28;19920;-65
2021/11/06 01:07:03;;;;;;;;;;;18.20;60.00;;;;;;5041887;28;19959;-65
2021/11/06 01:09:29;;;;;;;;;;;18.20;60.10;;;;;;5039371;28;19920;-65
2021/11/06 01:11:54;;;;;;;;;;;18.20;60.00;;;;;;5039285;28;19937;-65
2021/11/06 01:14:20;;;;;;;;;;;18.20;60.00;;;;;;5026889;28;19963;-64
2021/11/06 01:16:45;;;;;;;;;;;18.20;60.10;;;;;;5035903;28;20280;-65
2021/11/06 01:19:11;;;;;;;;;;;18.20;60.00;;;;;;5027722;28;19913;-66
2021/11/06 01:21:37;;;;;;;;;;;18.20;59.90;;;;;;5029287;28;19917;-66
2021/11/06 01:24:03;;;;;;;;;;;18.20;60.00;;;;;;5031606;28;19913;-65
2021/11/06 01:26:28;;;;;;;;;;;18.20;60.00;;;;;;5046403;28;19928;-65
2021/11/06 01:28:54;;;;;;;;;;;18.20;60.00;;;;;;5034945;28;19913;-64
2021/11/06 01:31:19;;;;;;;;;;;18.20;60.00;;;;;;5029485;28;19925;-64
2021/11/06 01:33:45;;;;;;;;;;;18.20;60.00;;;;;;5035828;28;20203;-67
2021/11/06 01:36:10;;;;;;;;;;;18.20;60.00;;;;;;5010951;28;19913;-65
2021/11/06 01:38:36;;;;;;;;;;;18.20;60.00;;;;;;5027091;28;19917;-65
2021/11/06 01:41:02;;;;;;;;;;;18.20;60.00;;;;;;5044316;28;20371;-65
2021/11/06 01:43:27;;;;;;;;;;;18.20;59.90;;;;;;5038465;28;19917;-65
2021/11/06 01:46:00;;;;;;;;;;;18.20;59.90;;;;;;5045983;28;19920;-65
2021/11/06 01:48:25;;;;;;;;;;;18.20;59.90;;;;;;5036288;28;20161;-65
2021/11/06 01:50:51;;;;;;;;;;;18.20;59.90;;;;;;5042848;28;20394;-64
2021/11/06 01:53:17;;;;;;;;;;;18.20;60.20;;;;;;5029494;28;20591;-64
2021/11/06 01:55:42;;;;;;;;;;;18.20;59.90;;;;;;5036077;28;20358;-61
2021/11/06 01:58:08;;;;;;;;;;;18.20;59.80;;;;;;5034163;28;19925;-66
2021/11/06 02:00:33;;;;;;;;;;;18.20;59.80;;;;;;5015400;28;19924;-65
2021/11/06 02:02:59;;;;;;;;;;;18.10;59.80;;;;;;5037265;28;19913;-61
2021/11/06 02:05:24;;;;;;;;;;;18.10;59.90;;;;;;5044269;28;19917;-66
2021/11/06 02:07:50;;;;;;;;;;;18.10;59.90;;;;;;5045439;28;19913;-64
2021/11/06 02:10:15;;;;;;;;;;;18.10;59.90;;;;;;5036076;28;19917;-64
2021/11/06 02:12:41;;;;;;;;;;;18.10;60.00;;;;;;5032698;28;19999;-66
2021/11/06 02:15:06;;;;;;;;;;;18.10;60.10;;;;;;5037796;28;19996;-64
2021/11/06 02:17:32;;;;;;;;;;;18.00;60.10;;;;;;5034643;28;20000;-66
2021/11/06 02:19:58;;;;;;;;;;;18.00;60.20;;;;;;5040441;28;19913;-65
2021/11/06 02:22:23;;;;;;;;;;;18.00;60.30;;;;;;5024748;28;19975;-65
2021/11/06 02:24:49;;;;;;;;;;;18.00;60.30;;;;;;5039973;28;19920;-64
2021/11/06 02:27:14;;;;;;;;;;;17.90;60.40;;;;;;5044751;28;19920;-65
2021/11/06 02:29:40;;;;;;;;;;;17.90;60.40;;;;;;5045519;28;19912;-65
2021/11/06 02:32:06;;;;;;;;;;;17.90;60.40;;;;;;5027494;28;19920;-64
2021/11/06 02:34:32;;;;;;;;;;;18.00;60.40;;;;;;5025897;28;19925;-65
2021/11/06 02:36:57;;;;;;;;;;;18.00;61.00;;;;;;5017407;28;20199;-63
2021/11/06 02:39:23;;;;;;;;;;;18.00;60.40;;;;;;5040882;28;20286;-64
2021/11/06 02:41:48;;;;;;;;;;;18.00;60.30;;;;;;5044525;28;19913;-64
2021/11/06 02:44:14;;;;;;;;;;;18.00;60.30;;;;;;5043582;28;19936;-63
2021/11/06 02:46:39;;;;;;;;;;;18.00;60.30;;;;;;5016374;28;19929;-63
2021/11/06 02:49:05;;;;;;;;;;;18.00;60.30;;;;;;5015431;28;19920;-65
2021/11/06 02:51:31;;;;;;;;;;;18.00;60.20;;;;;;5033538;28;20367;-66
2021/11/06 02:53:56;;;;;;;;;;;18.00;60.10;;;;;;5037922;28;20370;-65
2021/11/06 02:56:23;;;;;;;;;;;18.00;60.10;;;;;;5033056;28;19912;-65
2021/11/06 02:58:48;;;;;;;;;;;18.00;60.10;;;;;;5029027;28;20298;-66
2021/11/06 03:01:14;;;;;;;;;;;18.00;60.00;;;;;;5035094;28;19917;-65
2021/11/06 03:03:39;;;;;;;;;;;18.00;60.00;;;;;;5030588;28;20002;-67
2021/11/06 03:06:05;;;;;;;;;;;18.00;59.90;;;;;;5032859;28;19932;-63
2021/11/06 03:08:30;;;;;;;;;;;18.00;60.00;;;;;;5029041;28;20354;-66
2021/11/06 03:10:56;;;;;;;;;;;18.00;60.00;;;;;;5024388;28;20011;-64
2021/11/06 03:13:21;;;;;;;;;;;18.00;60.00;;;;;;5032701;28;19924;-66
2021/11/06 03:15:47;;;;;;;;;;;18.00;59.90;;;;;;5007898;28;19914;-65
2021/11/06 03:18:12;;;;;;;;;;;18.00;60.00;;;;;;5033158;28;19914;-64
2021/11/06 03:20:37;;;;;;;;;;;18.00;60.00;;;;;;5027064;28;20374;-65
2021/11/06 03:23:03;;;;;;;;;;;18.00;60.00;;;;;;5033423;28;19924;-65
2021/11/06 03:25:28;;;;;;;;;;;18.00;60.10;;;;;;5025418;28;19917;-65
2021/11/06 03:27:54;;;;;;;;;;;18.00;60.10;;;;;;5041487;28;20355;-64
2021/11/06 03:30:20;;;;;;;;;;;17.90;60.10;;;;;;5042030;28;19963;-65
2021/11/06 03:32:45;;;;;;;;;;;17.90;60.10;;;;;;5023944;28;21365;-65
2021/11/06 03:35:11;;;;;;;;;;;17.90;60.20;;;;;;5024397;28;19956;-66
2021/11/06 03:37:37;;;;;;;;;;;17.90;60.20;;;;;;5036471;28;20016;-66
2021/11/06 03:40:03;;;;;;;;;;;17.90;60.20;;;;;;5020036;28;20025;-65
2021/11/06 03:42:28;;;;;;;;;;;17.90;60.20;;;;;;5037849;28;19967;-63
2021/11/06 03:44:54;;;;;;;;;;;17.90;60.20;;;;;;5042093;28;19917;-65
2021/11/06 03:47:19;;;;;;;;;;;17.90;60.20;;;;;;5032286;28;19920;-65
2021/11/06 03:49:44;;;;;;;;;;;17.90;60.20;;;;;;5036882;28;19920;-65
2021/11/06 03:52:10;;;;;;;;;;;17.90;60.20;;;;;;5006292;28;20272;-65
2021/11/06 03:54:35;;;;;;;;;;;17.90;60.30;;;;;;5032558;28;19913;-65
2021/11/06 03:57:01;;;;;;;;;;;17.90;60.40;;;;;;5024904;28;19916;-64
2021/11/06 03:59:26;;;;;;;;;;;17.90;60.30;;;;;;5041318;28;19918;-65
2021/11/06 04:01:52;;;;;;;;;;;17.90;60.30;;;;;;5042669;28;20388;-65
2021/11/06 04:04:17;;;;;;;;;;;17.90;60.30;;;;;;5039967;28;19913;-66
2021/11/06 04:06:43;;;;;;;;;;;17.90;60.30;;;;;;5028767;28;19918;-65
2021/11/06 04:09:08;;;;;;;;;;;17.90;60.30;;;;;;5025134;28;19917;-64
2021/11/06 04:11:33;;;;;;;;;;;17.90;60.30;;;;;;5025787;28;19913;-64
2021/11/06 04:13:59;;;;;;;;;;;17.90;60.30;;;;;;5041853;28;19917;-65
2021/11/06 04:16:25;;;;;;;;;;;17.90;60.30;;;;;;5034035;28;20291;-65
2021/11/06 04:18:50;;;;;;;;;;;17.90;60.30;;;;;;5033556;28;19919;-64
2021/11/06 04:21:16;;;;;;;;;;;17.90;60.40;;;;;;5039148;28;20371;-65
2021/11/06 04:23:41;;;;;;;;;;;17.90;60.20;;;;;;5040771;28;19916;-66
2021/11/06 04:26:07;;;;;;;;;;;17.90;60.20;;;;;;5036573;28;20181;-65
2021/11/06 04:28:33;;;;;;;;;;;17.90;60.20;;;;;;5033482;28;19926;-64
2021/11/06 04:30:58;;;;;;;;;;;17.90;60.30;;;;;;5027557;28;20337;-65
2021/11/06 04:33:24;;;;;;;;;;;17.90;60.40;;;;;;5023572;28;19913;-65
2021/11/06 04:35:49;;;;;;;;;;;17.90;60.40;;;;;;5032634;28;20429;-63
2021/11/06 04:38:15;;;;;;;;;;;17.90;60.30;;;;;;5031325;28;19966;-65
2021/11/06 04:40:40;;;;;;;;;;;17.90;60.30;;;;;;5027618;28;19921;-65
2021/11/06 04:43:06;;;;;;;;;;;17.90;60.20;;;;;;5027542;28;19917;-65
2021/11/06 04:45:31;;;;;;;;;;;17.90;60.20;;;;;;5027525;28;19945;-65
2021/11/06 04:47:57;;;;;;;;;;;17.90;60.20;;;;;;5036457;28;19922;-65
2021/11/06 04:50:22;;;;;;;;;;;17.90;60.10;;;;;;5029979;28;19917;-65
2021/11/06 04:52:47;;;;;;;;;;;17.90;60.10;;;;;;5031915;28;19913;-65
2021/11/06 04:55:14;;;;;;;;;;;17.90;60.00;;;;;;5028737;28;20294;-58
2021/11/06 04:57:39;;;;;;;;;;;18.00;60.00;;;;;;5031263;28;19925;-65
2021/11/06 05:00:05;;;;;;;;;;;18.00;60.10;;;;;;5043462;28;20378;-64
2021/11/06 05:02:31;;;;;;;;;;;17.90;60.00;;;;;;5046722;28;19912;-64
2021/11/06 05:04:56;;;;;;;;;;;17.90;60.00;;;;;;5034365;28;19921;-66
2021/11/06 05:07:22;;;;;;;;;;;18.00;60.00;;;;;;5031237;28;19914;-66
2021/11/06 05:09:48;;;;;;;;;;;18.00;60.00;;;;;;5033354;28;19936;-66
2021/11/06 05:12:14;;;;;;;;;;;18.00;60.00;;;;;;5041577;28;20370;-63
2021/11/06 05:14:39;;;;;;;;;;;18.00;59.90;;;;;;5038085;28;19920;-65
2021/11/06 05:17:05;;;;;;;;;;;18.00;60.00;;;;;;5040783;28;19913;-62
2021/11/06 05:19:30;;;;;;;;;;;17.90;60.00;;;;;;5035076;28;20375;-67
2021/11/06 05:21:56;;;;;;;;;;;18.00;60.10;;;;;;5032313;28;19913;-66
2021/11/06 05:24:21;;;;;;;;;;;18.00;60.00;;;;;;5036409;28;19914;-65
2021/11/06 05:26:47;;;;;;;;;;;18.00;60.00;;;;;;5034995;28;20395;-65
2021/11/06 05:29:12;;;;;;;;;;;18.00;59.90;;;;;;5040063;28;19913;-65
2021/11/06 05:31:38;;;;;;;;;;;18.00;60.00;;;;;;5036286;28;19946;-65
2021/11/06 05:34:04;;;;;;;;;;;18.00;60.00;;;;;;5042073;28;20410;-64
2021/11/06 05:36:29;;;;;;;;;;;18.00;60.00;;;;;;5028589;28;19917;-67
2021/11/06 05:38:55;;;;;;;;;;;18.00;59.90;;;;;;5031652;28;19917;-65
2021/11/06 05:41:20;;;;;;;;;;;17.90;59.80;;;;;;5016154;28;19920;-65
2021/11/06 05:43:46;;;;;;;;;;;18.00;59.80;;;;;;5046019;28;19917;-55
2021/11/06 05:46:11;;;;;;;;;;;18.00;59.70;;;;;;5033090;28;21899;-56
2021/11/06 05:48:37;;;;;;;;;;;18.10;59.70;;;;;;5034408;28;19913;-58
2021/11/06 05:51:02;;;;;;;;;;;18.10;59.60;;;;;;5026076;28;19913;-62
2021/11/06 05:53:27;;;;;;;;;;;18.10;59.60;;;;;;5015653;28;19912;-58
2021/11/06 05:55:53;;;;;;;;;;;18.10;59.50;;;;;;5031327;28;19967;-57
2021/11/06 05:58:18;;;;;;;;;;;18.10;59.40;;;;;;5042687;28;19921;-54
2021/11/06 06:00:44;;;;;;;;;;;18.10;59.30;;;;;;5043293;28;19913;-65
2021/11/06 06:03:09;;;;;;;;;;;18.20;59.30;;;;;;5030214;28;19968;-54
2021/11/06 06:05:35;;;;;;;;;;;18.10;59.30;;;;;;5036336;28;19917;-63
2021/11/06 06:08:00;;;;;;;;;;;18.20;59.30;;;;;;5034577;28;19917;-57
2021/11/06 06:10:25;;;;;;;;;;;18.10;59.30;;;;;;5029649;28;19913;-59
2021/11/06 06:12:52;;;;;;;;;;;18.20;59.30;;;;;;5034641;28;20384;-55
2021/11/06 06:15:18;;;;;;;;;;;18.10;59.20;;;;;;5043727;28;19913;-56
2021/11/06 06:17:44;;;;;;;;;;;18.10;59.20;;;;;;5041079;28;19913;-64
2021/11/06 06:20:10;;;;;;;;;;;18.10;59.10;;;;;;5029859;28;20352;-58
2021/11/06 06:22:35;;;;;;;;;;;18.10;59.10;;;;;;5038531;28;19975;-65
2021/11/06 06:25:01;;;;;;;;;;;18.10;59.00;;;;;;5015180;28;19924;-64
2021/11/06 06:27:26;;;;;;;;;;;18.20;59.00;;;;;;5025572;28;19936;-64
2021/11/06 06:29:52;;;;;;;;;;;18.10;58.90;;;;;;5029939;28;20298;-64
2021/11/06 06:32:17;;;;;;;;;;;18.10;58.90;;;;;;5032861;28;22339;-65
2021/11/06 06:34:43;;;;;;;;;;;18.10;58.90;;;;;;5034552;28;20009;-64
2021/11/06 06:37:08;;;;;;;;;;;18.10;58.80;;;;;;5032989;28;19913;-59
2021/11/06 06:39:34;;;;;;;;;;;18.10;58.70;;;;;;5044488;28;19959;-65
2021/11/06 06:41:59;;;;;;;;;;;18.10;58.70;;;;;;5018370;28;19935;-65
2021/11/06 06:44:24;;;;;;;;;;;18.10;58.70;;;;;;5036273;28;19917;-65
2021/11/06 06:46:50;;;;;;;;;;;18.10;58.70;;;;;;5026066;28;19918;-65
2021/11/06 06:49:15;;;;;;;;;;;18.10;58.70;;;;;;5033242;28;20357;-55
2021/11/06 06:51:41;;;;;;;;;;;18.10;58.70;;;;;;5036775;28;19916;-65
2021/11/06 06:54:06;;;;;;;;;;;18.10;58.60;;;;;;5038842;28;19920;-55
2021/11/06 06:56:32;;;;;;;;;;;18.10;58.50;;;;;;5032354;28;20426;-66
2021/11/06 06:58:57;;;;;;;;;;;18.10;58.50;;;;;;5044785;28;19928;-65
2021/11/06 07:01:23;;;;;;;;;;;18.10;58.40;;;;;;5042761;28;19970;-65
2021/11/06 07:03:49;;;;;;;;;;;18.10;58.30;;;;;;5028334;28;19933;-65
2021/11/06 07:06:14;;;;;;;;;;;18.10;58.30;;;;;;5024827;28;19917;-66
2021/11/06 07:08:40;;;;;;;;;;;18.10;58.30;;;;;;5042347;28;20303;-56
2021/11/06 07:11:05;;;;;;;;;;;18.10;58.20;;;;;;5044359;28;19998;-55
2021/11/06 07:13:34;;;;;;;;;;;18.10;58.10;;;;;;5031294;28;19923;-65
2021/11/06 07:15:59;;;;;;;;;;;18.10;58.10;;;;;;5035528;28;19920;-65
2021/11/06 07:18:25;;;;;;;;;;;18.10;58.10;;;;;;5032465;28;20232;-55
2021/11/06 07:20:50;;;;;;;;;;;18.10;58.00;;;;;;5031044;28;19960;-58
2021/11/06 07:23:16;;;;;;;;;;;18.20;58.00;;;;;;5032236;28;19951;-65
2021/11/06 07:25:41;;;;;;;;;;;18.20;58.00;;;;;;5036733;28;20369;-64
2021/11/06 07:28:07;;;;;;;;;;;18.20;58.00;;;;;;5032520;28;19913;-65
2021/11/06 07:30:32;;;;;;;;;;;18.20;57.90;;;;;;5040763;28;20198;-65
2021/11/06 07:32:58;;;;;;;;;;;18.10;57.90;;;;;;5037107;28;19923;-64
2021/11/06 07:35:23;;;;;;;;;;;18.20;57.90;;;;;;5027853;28;19917;-65
2021/11/06 07:37:48;;;;;;;;;;;18.10;57.80;;;;;;5044208;28;19917;-59
2021/11/06 07:40:14;;;;;;;;;;;18.10;57.80;;;;;;5039698;28;19924;-66
2021/11/06 07:42:40;;;;;;;;;;;18.20;57.80;;;;;;5040580;28;19945;-58
2021/11/06 07:45:06;;;;;;;;;;;18.20;57.70;;;;;;5032293;28;19921;-59
2021/11/06 07:47:31;;;;;;;;;;;18.20;57.70;;;;;;5023450;28;19924;-65
2021/11/06 07:49:57;;;;;;;;;;;18.20;57.70;;;;;;5039482;28;19965;-65
2021/11/06 07:52:23;;;;;;;;;;;18.20;57.60;;;;;;5035609;28;19917;-62
2021/11/06 07:54:48;;;;;;;;;;;18.10;57.60;;;;;;5035227;28;19919;-55
2021/11/06 07:57:14;;;;;;;;;;;18.10;57.60;;;;;;5043249;28;19953;-59
2021/11/06 07:59:39;;;;;;;;;;;18.10;57.70;;;;;;5026691;28;20286;-54
2021/11/06 08:02:04;;;;;;;;;;;18.10;57.50;;;;;;5032694;28;19913;-63
2021/11/06 08:04:30;;;;;;;;;;;18.10;57.50;;;;;;5025880;28;19913;-64
2021/11/06 08:06:56;;;;;;;;;;;18.10;58.20;;;;;;5032190;28;19917;-63
2021/11/06 08:09:21;;;;;;;;;;;18.10;57.70;;;;;;5031042;28;20359;-66
2021/11/06 08:11:46;;;;;;;;;;;18.10;57.80;;;;;;5006222;28;19913;-64
2021/11/06 08:14:12;;;;;;;;;;;18.10;58.20;;;;;;5034083;28;19962;-65
2021/11/06 08:16:37;;;;;;;;;;;18.10;58.20;;;;;;5042948;28;19940;-63
2021/11/06 08:19:03;;;;;;;;;;;18.10;58.40;;;;;;5055635;28;20318;-64
2021/11/06 08:21:28;;;;;;;;;;;18.10;58.50;;;;;;5033234;28;19967;-65
2021/11/06 08:23:54;;;;;;;;;;;18.10;58.70;;;;;;5026764;28;20205;-65
2021/11/06 08:26:19;;;;;;;;;;;18.10;58.80;;;;;;5033075;28;20373;-66
2021/11/06 08:28:45;;;;;;;;;;;18.10;58.80;;;;;;5038628;28;20268;-65
2021/11/06 08:31:10;;;;;;;;;;;18.10;58.90;;;;;;5024497;28;19920;-65
2021/11/06 08:33:36;;;;;;;;;;;18.10;59.10;;;;;;5036099;28;19921;-64
2021/11/06 08:36:01;;;;;;;;;;;18.10;59.10;;;;;;5037061;28;19921;-64
2021/11/06 08:38:27;;;;;;;;;;;18.10;59.40;;;;;;5031521;28;19913;-64
2021/11/06 08:40:53;;;;;;;;;;;18.10;59.40;;;;;;5036467;28;19920;-63
2021/11/06 08:43:18;;;;;;;;;;;18.10;59.40;;;;;;5033496;28;19952;-63
2021/11/06 08:45:46;;;;;;;;;;;18.10;59.30;;;;;;5046721;28;19925;-63
2021/11/06 08:48:11;;;;;;;;;;;18.10;59.50;;;;;;5042703;28;19971;-64
2021/11/06 08:50:36;;;;;;;;;;;18.10;59.50;;;;;;5033897;28;20397;-64
2021/11/06 08:53:02;;;;;;;;;;;18.10;59.40;;;;;;5009524;28;19913;-63
2021/11/06 08:55:28;;;;;;;;;;;18.10;59.30;;;;;;5031614;28;19917;-63
2021/11/06 08:57:53;;;;;;;;;;;18.10;59.20;;;;;;5038590;28;19921;-64
2021/11/06 09:00:25;;;;;;;;;;;18.10;59.20;;;;;;5045076;28;20388;-63
2021/11/06 09:02:50;;;;;;;;;;;18.10;59.10;;;;;;5027479;28;19920;-66
2021/11/06 09:05:16;;;;;;;;;;;18.10;59.10;;;;;;5035589;28;19917;-64
2021/11/06 09:07:41;;;;;;;;;;;18.10;59.00;;;;;;5033689;28;19917;-64
2021/11/06 09:10:08;;;;;;;;;;;18.10;59.00;;;;;;5032909;28;20411;-63
2021/11/06 09:12:34;;;;;;;;;;;18.10;59.00;;;;;;5026963;28;19975;-64
2021/11/06 09:14:59;;;;;;;;;;;18.10;58.90;;;;;;5036323;28;20376;-64
2021/11/06 09:17:25;;;;;;;;;;;18.10;59.00;;;;;;5028491;28;19913;-64
2021/11/06 09:19:50;;;;;;;;;;;18.10;58.90;;;;;;5035444;28;19921;-63
2021/11/06 09:22:16;;;;;;;;;;;18.10;58.90;;;;;;5035178;28;19913;-64
2021/11/06 09:24:42;;;;;;;;;;;18.10;58.90;;;;;;5030986;28;19918;-63
2021/11/06 09:27:07;;;;;;;;;;;18.10;58.90;;;;;;5045650;28;19928;-62
2021/11/06 09:29:32;;;;;;;;;;;18.10;58.90;;;;;;5027476;28;20378;-57
2021/11/06 09:31:58;;;;;;;;;;;18.10;59.10;;;;;;5027129;28;19979;-62
2021/11/06 09:34:23;;;;;;;;;;;18.10;59.40;;;;;;5029749;28;19920;-64
2021/11/06 09:36:49;;;;;;;;;;;18.10;59.80;;;;;;5034360;28;19920;-65
2021/11/06 09:39:15;;;;;;;;;;;18.10;59.80;;;;;;5036714;28;20375;-65
2021/11/06 09:41:40;;;;;;;;;;;18.10;59.90;;;;;;5014809;28;19925;-66
2021/11/06 09:44:06;;;;;;;;;;;18.10;59.90;;;;;;5040076;28;20529;-66
2021/11/06 09:46:32;;;;;;;;;;;18.10;60.10;;;;;;5042631;28;19931;-65
2021/11/06 09:48:57;;;;;;;;;;;18.00;60.20;;;;;;5032864;28;19913;-63
2021/11/06 09:51:22;;;;;;;;;;;18.00;60.40;;;;;;5033868;28;19966;-65
2021/11/06 09:53:48;;;;;;;;;;;18.00;60.90;;;;;;5045037;28;19921;-63
2021/11/06 09:56:15;;;;;;;;;;;18.00;61.30;;;;;;5046393;28;19920;-64
2021/11/06 09:58:40;;;;;;;;;;;18.00;61.80;;;;;;5025793;28;19927;-64
2021/11/06 10:01:06;;;;;;;;;;;18.00;62.00;;;;;;5035634;28;19912;-64
2021/11/06 10:03:32;;;;;;;;;;;18.00;62.50;;;;;;5041644;28;20027;-64
2021/11/06 10:06:00;;;;;;;;;;;18.00;62.30;;;;;;5032509;28;20379;-65
2021/11/06 10:08:30;;;;;;;;;;;17.90;62.20;;;;;;5034085;28;19913;-65
2021/11/06 10:10:56;;;;;;;;;;;17.90;62.20;;;;;;5042054;28;19920;-65
2021/11/06 10:13:21;;;;;;;;;;;17.90;61.90;;;;;;5041000;28;19917;-64
2021/11/06 10:15:48;;;;;;;;;;;17.90;61.60;;;;;;5041611;28;19924;-63
2021/11/06 10:18:18;;;;;;;;;;;17.90;61.00;;;;;;5030528;28;20295;-64
2021/11/06 10:20:45;;;;;;;;;;;17.90;60.20;;;;;;5030405;28;19918;-64
2021/11/06 10:23:10;;;;;;;;;;;17.90;59.40;;;;;;5036394;28;19913;-64
2021/11/06 10:25:37;;;;;;;;;;;17.90;58.60;;;;;;5045165;28;20302;-64
2021/11/06 10:28:04;;;;;;;;;;;17.90;58.30;;;;;;5030568;28;19923;-64
2021/11/06 10:30:30;;;;;;;;;;;17.90;58.30;;;;;;5029457;28;20354;-64
2021/11/06 10:32:57;;;;;;;;;;;17.80;58.10;;;;;;5040074;28;19995;-63
2021/11/06 10:35:23;;;;;;;;;;;17.80;58.50;;;;;;5043956;28;20506;-61
2021/11/06 10:37:49;;;;;;;;;;;17.80;58.60;;;;;;5025714;28;19913;-62
2021/11/06 10:40:14;;;;;;;;;;;17.80;59.10;;;;;;5012876;28;19979;-64
2021/11/06 10:42:50;;;;;;;;;;;17.70;59.40;;;;;;5038305;28;19917;-65
2021/11/06 10:45:16;;;;;;;;;;;17.70;59.70;;;;;;5030935;28;19923;-64
2021/11/06 10:48:00;;;;;;;;;;;17.70;60.00;;;;;;5029116;28;20443;-64
2021/11/06 10:50:36;;;;;;;;;;;17.70;60.20;;;;;;5032725;28;19919;-62
2021/11/06 10:53:02;;;;;;;;;;;17.70;60.40;;;;;;5036333;28;20759;-62
2021/11/06 10:55:31;;;;;;;;;;;17.70;60.60;;;;;;5039253;28;19971;-63
2021/11/06 10:57:57;;;;;;;;;;;17.70;60.80;;;;;;5027097;28;20280;-63
2021/11/06 11:00:22;;;;;;;;;;;17.70;61.00;;;;;;5039297;28;19924;-64
2021/11/06 11:02:48;;;;;;;;;;;17.60;61.10;;;;;;5017298;28;19913;-64
2021/11/06 11:05:32;;;;;;;;;;;17.70;61.30;;;;;;5039186;28;19947;-65
2021/11/06 11:08:10;;;;;;;;;;;17.70;61.30;;;;;;5045115;28;19920;-64
2021/11/06 11:10:36;;;;;;;;;;;17.70;61.50;;;;;;5043116;28;19924;-63
2021/11/06 11:13:10;;;;;;;;;;;17.70;61.50;;;;;;5045753;28;19921;-63
2021/11/06 11:15:36;;;;;;;;;;;17.80;61.40;;;;;;5040775;28;19913;-64
2021/11/06 11:18:01;;;;;;;;;;;17.80;61.30;;;;;;5025645;28;20016;-64
2021/11/06 11:20:27;;;;;;;;;;;17.80;61.00;;;;;;5038938;28;19913;-63
2021/11/06 11:23:12;;;;;;;;;;;17.80;60.80;;;;;;5027514;28;19918;-65
2021/11/06 11:25:42;;;;;;;;;;;17.90;60.60;;;;;;5023889;28;19986;-65
2021/11/06 11:28:07;;;;;;;;;;;17.90;60.40;;;;;;5036366;28;19920;-63
2021/11/06 11:30:33;;;;;;;;;;;17.80;60.00;;;;;;5033018;28;20334;-64
2021/11/06 11:33:00;;;;;;;;;;;17.90;60.00;;;;;;5032402;28;19913;-65
2021/11/06 11:35:26;;;;;;;;;;;17.90;59.80;;;;;;5019910;28;19917;-65
2021/11/06 11:37:51;;;;;;;;;;;17.90;59.60;;;;;;5020397;28;19974;-67
2021/11/06 11:40:16;;;;;;;;;;;17.80;59.40;;;;;;5018338;28;21054;-68
2021/11/06 11:42:59;;;;;;;;;;;17.90;59.30;;;;;;5016610;28;19917;-68
2021/11/06 11:45:43;;;;;;;;;;;17.90;59.10;;;;;;5015755;28;19917;-68
2021/11/06 11:48:11;;;;;;;;;;;17.90;58.90;;;;;;5032153;28;20039;-69
2021/11/06 11:50:38;;;;;;;;;;;17.90;58.60;;;;;;5010250;28;19913;-71
2021/11/06 11:53:05;;;;;;;;;;;17.90;58.60;;;;;;5032169;28;19913;-70
2021/11/06 11:55:37;;;;;;;;;;;17.90;58.60;;;;;;5008772;28;19913;-71
2021/11/06 11:58:04;;;;;;;;;;;17.90;58.50;;;;;;5023034;28;19957;-70
2021/11/06 12:00:29;;;;;;;;;;;18.00;58.30;;;;;;5028304;28;19913;-68
2021/11/06 12:02:59;;;;;;;;;;;18.00;58.30;;;;;;5028973;28;19919;-70
2021/11/06 12:05:43;;;;;;;;;;;18.00;58.30;;;;;;5001780;28;19966;-68
2021/11/06 12:08:11;;;;;;;;;;;18.00;58.20;;;;;;5041143;28;20617;-68
2021/11/06 12:10:40;;;;;;;;;;;18.00;58.50;;;;;;5032172;28;19913;-69
2021/11/06 12:13:05;;;;;;;;;;;18.10;58.70;;;;;;5035516;28;19948;-64
2021/11/06 12:15:49;;;;;;;;;;;18.10;58.70;;;;;;5024171;28;20506;-68
2021/11/06 12:18:33;;;;;;;;;;;18.10;59.00;;;;;;5028052;28;19920;-65
2021/11/06 12:23:40;;;;;;;;;;;18.10;59.30;;;;;;5036909;28;20059;-66
2021/11/06 12:26:18;;;;;;;;;;;18.10;59.20;;;;;;5038312;28;20426;-67
2021/11/06 12:28:44;;;;;;;;;;;18.10;59.40;;;;;;5027794;28;19913;-63
2021/11/06 12:31:23;;;;;;;;;;;18.10;59.40;;;;;;5030632;28;19968;-64
2021/11/06 12:33:49;;;;;;;;;;;18.10;59.30;;;;;;5038635;28;19913;-63
2021/11/06 12:36:15;;;;;;;;;;;18.20;58.90;;;;;;5039897;28;19913;-64
2021/11/06 12:38:41;;;;;;;;;;;18.10;58.70;;;;;;5032199;28;20308;-63
2021/11/06 12:41:06;;;;;;;;;;;18.20;58.30;;;;;;5029507;28;19913;-61
2021/11/06 12:43:32;;;;;;;;;;;18.20;58.00;;;;;;5022279;28;20302;-63
2021/11/06 12:46:16;;;;;;;;;;;18.20;57.80;;;;;;5035931;28;19917;-64
2021/11/06 12:48:42;;;;;;;;;;;18.20;57.60;;;;;;5026363;28;19913;-64
2021/11/06 12:51:13;;;;;;;;;;;18.20;57.40;;;;;;5035416;28;19921;-64
2021/11/06 12:53:42;;;;;;;;;;;18.20;57.20;;;;;;5044790;28;19940;-65
2021/11/06 12:56:09;;;;;;;;;;;18.30;56.90;;;;;;5026732;28;19921;-65
2021/11/06 12:58:35;;;;;;;;;;;18.20;57.00;;;;;;5025057;28;19922;-64
2021/11/06 13:01:13;;;;;;;;;;;18.20;57.40;;;;;;5034480;28;19944;-65
2021/11/06 13:03:38;;;;;;;;;;;18.20;57.80;;;;;;5034481;28;19913;-64
2021/11/06 13:06:17;;;;;;;;;;;18.20;58.30;;;;;;5055145;28;20028;-64
2021/11/06 13:08:58;;;;;;;;;;;18.20;58.90;;;;;;5048469;28;19949;-63
2021/11/06 13:11:23;;;;;;;;;;;18.20;59.60;;;;;;5024939;28;19944;-61
2021/11/06 13:13:52;;;;;;;;;;;18.20;60.10;;;;;;5036734;28;20295;-66
2021/11/06 13:16:17;;;;;;;;;;;18.10;60.30;;;;;;5040071;28;19920;-56
2021/11/06 13:18:44;;;;;;;;;;;18.10;60.60;;;;;;5026927;28;19913;-63
2021/11/06 13:21:09;;;;;;;;;;;18.10;60.50;;;;;;5027699;28;20375;-63
2021/11/06 13:23:34;;;;;;;;;;;18.10;60.70;;;;;;5040041;28;19917;-63
2021/11/06 13:26:00;;;;;;;;;;;18.10;60.70;;;;;;5040327;28;20307;-62
2021/11/06 13:28:26;;;;;;;;;;;18.10;60.70;;;;;;5044997;28;19966;-66
2021/11/06 13:30:51;;;;;;;;;;;18.10;60.60;;;;;;5031352;28;19983;-65
2021/11/06 13:33:18;;;;;;;;;;;18.10;60.60;;;;;;5033226;28;19913;-62
2021/11/06 13:35:52;;;;;;;;;;;18.10;60.70;;;;;;5032481;28;19913;-65
2021/11/06 13:38:25;;;;;;;;;;;18.10;60.90;;;;;;5026849;28;19920;-64
2021/11/06 13:40:52;;;;;;;;;;;18.10;61.10;;;;;;5025190;28;19975;-63
2021/11/06 13:43:32;;;;;;;;;;;18.10;61.50;;;;;;5041182;28;19952;-65
2021/11/06 13:46:03;;;;;;;;;;;18.10;61.60;;;;;;5036501;28;19924;-64
2021/11/06 13:48:29;;;;;;;;;;;18.20;61.80;;;;;;5046378;28;19935;-64
2021/11/06 13:51:25;;;;;;;;;;;18.20;61.50;;;;;;5028803;28;20507;-62
2021/11/06 13:53:57;;;;;;;;;;;18.20;61.10;;;;;;5014435;28;19960;-66
2021/11/06 13:56:26;;;;;;;;;;;18.20;60.30;;;;;;5030707;28;19971;-60
2021/11/06 13:58:57;;;;;;;;;;;18.20;59.80;;;;;;5035128;28;19921;-65
2021/11/06 14:01:23;;;;;;;;;;;18.20;60.00;;;;;;5000874;28;19959;-66
2021/11/06 14:03:49;;;;;;;;;;;18.20;60.40;;;;;;5021907;28;19949;-65
2021/11/06 14:06:14;;;;;;;;;;;18.30;60.40;;;;;;5011127;28;20641;-68
2021/11/06 14:08:40;;;;;;;;;;;18.30;60.20;;;;;;5021763;28;19963;-67
2021/11/06 14:11:05;;;;;;;;;;;18.30;60.00;;;;;;5036321;28;19920;-66
2021/11/06 14:13:31;;;;;;;;;;;18.30;60.10;;;;;;5032309;28;19956;-66
2021/11/06 14:15:56;;;;;;;;;;;18.30;60.20;;;;;;5027758;28;19963;-65